createdAt,value
2023-03-06T00:01:20.684Z,98785.98
2023-03-06T00:04:36.377Z,98784.98
2023-03-06T00:07:18.641Z,98780.02
2023-03-06T00:10:13.983Z,98778.17
2023-03-06T00:13:20.282Z,98774.74
2023-03-06T00:16:19.439Z,98770.95
2023-03-06T00:18:59.544Z,98769.56
2023-03-06T00:21:58.548Z,98766.15
2023-03-06T00:25:14.027Z,98769.40
2023-03-06T00:28:15.668Z,98768.88
2023-03-06T00:30:52.494Z,98764.02
2023-03-06T00:34:05.191Z,98764.70
2023-03-06T00:36:58.394Z,98761.58
2023-03-06T00:39:51.906Z,98758.46
2023-03-06T00:42:34.627Z,98749.52
2023-03-06T00:46:08.888Z,98744.48
2023-03-06T00:49:35.925Z,98746.18
2023-03-06T00:53:23.388Z,98740.47
2023-03-06T00:56:41.982Z,98732.19
2023-03-06T00:59:47.288Z,98724.95
2023-03-06T01:02:44.888Z,98722.52
2023-03-06T01:05:34.234Z,98723.02
2023-03-06T01:08:59.806Z,98713.23
2023-03-06T01:11:53.001Z,98713.26
2023-03-06T01:14:38.984Z,98716.00
2023-03-06T01:21:25.197Z,98701.70
2023-03-06T01:24:48.904Z,98696.05
2023-03-06T01:28:00.096Z,98697.95
2023-03-06T01:30:46.951Z,98695.55
2023-03-06T01:33:38.778Z,98690.02
2023-03-06T01:40:31.876Z,98673.70
2023-03-06T01:43:38.003Z,98670.80
2023-03-06T01:47:19.477Z,98665.83
2023-03-06T01:50:20.733Z,98659.27
2023-03-06T01:53:17.040Z,98662.89
2023-03-06T01:57:11.496Z,98659.95
2023-03-06T01:59:30.692Z,98646.33
2023-03-06T02:02:28.320Z,98632.52
2023-03-06T02:06:01.858Z,98629.90
2023-03-06T02:12:50.867Z,98623.77
2023-03-06T02:16:00.438Z,98621.37
2023-03-06T02:18:58.037Z,98620.00
2023-03-06T02:22:02.473Z,98617.63
2023-03-06T02:25:22.265Z,98613.04
2023-03-06T02:28:44.043Z,98606.84
2023-03-06T02:31:49.235Z,98602.71
2023-03-06T02:35:09.768Z,98596.67
2023-03-06T02:38:06.954Z,98594.09
2023-03-06T02:41:32.116Z,98593.08
2023-03-06T02:44:33.852Z,98591.55
2023-03-06T02:47:17.191Z,98585.18
2023-03-06T02:50:40.940Z,98586.05
2023-03-06T02:53:46.522Z,98585.19
2023-03-06T02:56:54.800Z,98582.46
2023-03-06T03:03:47.397Z,98571.27
2023-03-06T03:06:45.583Z,98569.07
2023-03-06T03:09:40.433Z,98566.83
2023-03-06T03:16:22.413Z,98565.84
2023-03-06T03:19:31.295Z,98558.25
2023-03-06T03:22:44.178Z,98555.27
2023-03-06T03:26:40.703Z,98548.54
2023-03-06T03:29:35.957Z,98547.14
2023-03-06T03:32:35.769Z,98541.79
2023-03-06T03:36:23.897Z,98538.89
2023-03-06T03:39:13.967Z,98534.73
2023-03-06T03:45:48.395Z,98519.55
2023-03-06T03:49:35.418Z,98520.73
2023-03-06T03:52:51.591Z,98511.30
2023-03-06T03:56:15.444Z,98510.78
2023-03-06T03:59:13.579Z,98511.79
2023-03-06T04:06:29.900Z,98504.61
2023-03-06T04:09:28.008Z,98496.46
2023-03-06T04:12:57.888Z,98489.98
2023-03-06T04:15:43.097Z,98484.40
2023-03-06T04:22:42.662Z,98474.86
2023-03-06T04:26:23.151Z,98475.75
2023-03-06T04:30:14.842Z,98472.59
2023-03-06T04:33:25.063Z,98468.06
2023-03-06T04:36:51.848Z,98465.86
2023-03-06T04:42:41.214Z,98463.98
2023-03-06T04:45:18.610Z,98461.44
2023-03-06T04:48:13.324Z,98463.20
2023-03-06T04:51:36.761Z,98458.27
2023-03-06T04:54:35.938Z,98449.55
2023-03-06T05:02:25.801Z,98446.54
2023-03-06T05:05:35.977Z,98440.46
2023-03-06T05:08:44.455Z,98438.02
2023-03-06T05:11:36.280Z,98438.67
2023-03-06T05:18:34.191Z,98433.83
2023-03-06T05:21:14.274Z,98430.05
2023-03-06T05:27:19.216Z,98431.48
2023-03-06T05:33:31.815Z,98430.96
2023-03-06T05:36:36.643Z,98429.79
2023-03-06T05:39:15.589Z,98432.05
2023-03-06T05:42:31.132Z,98441.90
2023-03-06T05:45:32.691Z,98424.48
2023-03-06T05:48:40.157Z,98433.40
2023-03-06T05:51:32.151Z,98441.13
2023-03-06T05:54:04.299Z,98443.04
2023-03-06T05:57:08.092Z,98439.36
2023-03-06T06:00:23.917Z,98436.69
2023-03-06T06:03:49.013Z,98433.27
2023-03-06T06:07:19.238Z,98432.29
2023-03-06T06:09:47.062Z,98440.50
2023-03-06T06:12:32.022Z,98442.96
2023-03-06T06:15:15.303Z,98442.27
2023-03-06T06:17:56.600Z,98444.84
2023-03-06T06:20:42.626Z,98442.21
2023-03-06T06:23:26.173Z,98445.96
2023-03-06T06:26:22.423Z,98441.80
2023-03-06T06:29:00.104Z,98445.20
2023-03-06T06:31:51.231Z,98449.46
2023-03-06T06:34:29.122Z,98446.90
2023-03-06T06:37:12.922Z,98451.01
2023-03-06T06:41:04.695Z,98451.76
2023-03-06T06:47:26.097Z,98449.57
2023-03-06T06:49:56.495Z,98448.33
2023-03-06T06:52:25.056Z,98451.20
2023-03-06T06:55:17.379Z,98448.42
2023-03-06T06:57:59.136Z,98451.45
2023-03-06T07:00:34.836Z,98448.56
2023-03-06T07:03:41.793Z,98449.95
2023-03-06T07:06:18.687Z,98448.52
2023-03-06T07:08:46.761Z,98453.85
2023-03-06T07:11:19.254Z,98451.11
2023-03-06T07:13:47.703Z,98454.58
2023-03-06T07:16:19.054Z,98452.15
2023-03-06T07:18:49.002Z,98446.13
2023-03-06T07:21:20.246Z,98452.48
2023-03-06T07:23:56.766Z,98452.40
2023-03-06T07:26:34.840Z,98450.95
2023-03-06T07:29:09.213Z,98454.19
2023-03-06T07:31:55.050Z,98457.98
2023-03-06T07:34:31.716Z,98462.98
2023-03-06T07:37:18.341Z,98461.45
2023-03-06T07:40:04.746Z,98468.19
2023-03-06T07:42:38.863Z,98465.52
2023-03-06T07:45:19.229Z,98464.91
2023-03-06T07:47:53.668Z,98474.58
2023-03-06T07:50:24.328Z,98471.79
2023-03-06T07:53:02.659Z,98476.05
2023-03-06T07:55:38.567Z,98472.27
2023-03-06T07:58:45.935Z,98477.83
2023-03-06T08:01:23.775Z,98481.48
2023-03-06T08:03:58.410Z,98484.59
2023-03-06T08:06:39.775Z,98483.59
2023-03-06T08:09:20.198Z,98488.27
2023-03-06T08:11:57.976Z,98483.20
2023-03-06T08:14:51.141Z,98487.81
2023-03-06T08:17:38.705Z,98487.51
2023-03-06T08:20:24.296Z,98490.60
2023-03-06T08:22:52.423Z,98488.27
2023-03-06T08:25:37.039Z,98489.52
2023-03-06T08:28:15.897Z,98492.67
2023-03-06T08:30:55.412Z,98488.89
2023-03-06T08:33:41.246Z,98486.16
2023-03-06T08:36:18.347Z,98489.17
2023-03-06T08:39:06.760Z,98492.73
2023-03-06T08:42:03.222Z,98491.98
2023-03-06T08:44:41.391Z,98497.70
2023-03-06T08:47:14.656Z,98496.11
2023-03-06T08:50:07.863Z,98495.91
2023-03-06T08:52:57.966Z,98498.03
2023-03-06T08:58:34.456Z,98496.99
2023-03-06T09:01:25.174Z,98502.42
2023-03-06T09:04:18.383Z,98500.49
2023-03-06T09:07:46.942Z,98503.11
2023-03-06T09:10:22.669Z,98505.55
2023-03-06T09:13:07.550Z,98502.55
2023-03-06T09:16:23.593Z,98506.79
2023-03-06T09:18:59.943Z,98506.27
2023-03-06T09:21:40.958Z,98503.78
2023-03-06T09:24:17.256Z,98502.84
2023-03-06T09:26:52.157Z,98505.03
2023-03-06T09:29:26.276Z,98505.55
2023-03-06T09:32:12.119Z,98501.14
2023-03-06T09:35:04.087Z,98498.67
2023-03-06T09:37:51.753Z,98500.78
2023-03-06T09:40:39.608Z,98501.83
2023-03-06T09:43:23.619Z,98498.07
2023-03-06T09:46:29.263Z,98498.84
2023-03-06T09:49:56.598Z,98494.32
2023-03-06T09:53:09.239Z,98493.64
2023-03-06T09:55:46.059Z,98495.56
2023-03-06T09:58:27.300Z,98491.15
2023-03-06T10:01:22.208Z,98492.62
2023-03-06T10:04:07.113Z,98494.09
2023-03-06T10:06:54.719Z,98496.50
2023-03-06T10:10:09.900Z,98489.91
2023-03-06T10:13:06.808Z,98488.93
2023-03-06T10:15:46.488Z,98489.95
2023-03-06T10:18:24.523Z,98486.31
2023-03-06T10:21:18.627Z,98475.53
2023-03-06T10:24:05.505Z,98475.74
2023-03-06T10:27:13.951Z,98473.84
2023-03-06T10:30:03.994Z,98474.46
2023-03-06T10:33:07.623Z,98471.08
2023-03-06T10:36:48.057Z,98468.02
2023-03-06T10:39:36.947Z,98468.18
2023-03-06T10:42:21.536Z,98469.11
2023-03-06T10:45:23.994Z,98465.21
2023-03-06T10:48:54.209Z,98465.41
2023-03-06T10:51:36.729Z,98465.50
2023-03-06T10:54:17.793Z,98462.22
2023-03-06T10:56:55.750Z,98463.21
2023-03-06T10:59:57.395Z,98460.42
2023-03-06T11:02:43.766Z,98464.67
2023-03-06T11:05:25.003Z,98461.39
2023-03-06T11:08:01.692Z,98458.39
2023-03-06T11:10:36.991Z,98457.08
2023-03-06T11:13:28.958Z,98455.51
2023-03-06T11:16:19.770Z,98453.29
2023-03-06T11:19:19.006Z,98452.05
2023-03-06T11:22:27.877Z,98448.30
2023-03-06T11:25:49.978Z,98446.44
2023-03-06T11:29:16.063Z,98439.58
2023-03-06T11:31:59.299Z,98440.69
2023-03-06T11:34:50.954Z,98435.98
2023-03-06T11:38:44.508Z,98432.30
2023-03-06T11:42:05.295Z,98440.38
2023-03-06T11:45:21.781Z,98442.20
2023-03-06T11:48:17.884Z,98445.45
2023-03-06T11:51:15.282Z,98442.48
2023-03-06T11:54:35.087Z,98448.98
2023-03-06T11:57:29.075Z,98446.90
2023-03-06T12:00:31.014Z,98444.71
2023-03-06T12:03:33.719Z,98440.50
2023-03-06T12:06:13.596Z,98439.30
2023-03-06T12:09:46.648Z,98435.61
2023-03-06T12:12:44.664Z,98436.90
2023-03-06T12:15:52.337Z,98433.31
2023-03-06T12:18:56.478Z,98434.26
2023-03-06T12:22:17.071Z,98439.02
2023-03-06T12:25:26.016Z,98439.36
2023-03-06T12:28:23.966Z,98440.34
2023-03-06T12:31:30.291Z,98441.80
2023-03-06T12:34:41.481Z,98439.66
2023-03-06T12:37:33.204Z,98435.21
2023-03-06T12:40:57.157Z,98440.01
2023-03-06T12:44:03.849Z,98436.54
2023-03-06T12:47:01.360Z,98435.89
2023-03-06T12:49:38.323Z,98434.54
2023-03-06T12:52:18.747Z,98437.20
2023-03-06T12:55:01.389Z,98433.00
2023-03-06T12:57:48.186Z,98428.55
2023-03-06T13:01:50.883Z,98434.23
2023-03-06T13:05:33.800Z,98426.89
2023-03-06T13:08:36.936Z,98425.07
2023-03-06T13:11:35.649Z,98422.23
2023-03-06T13:17:47.154Z,98418.20
2023-03-06T13:20:54.989Z,98420.39
2023-03-06T13:23:53.366Z,98418.32
2023-03-06T13:26:50.236Z,98418.77
2023-03-06T13:29:38.051Z,98416.41
2023-03-06T13:32:37.104Z,98418.59
2023-03-06T13:35:47.353Z,98417.29
2023-03-06T13:38:36.819Z,98421.86
2023-03-06T13:42:01.800Z,98424.81
2023-03-06T13:44:46.228Z,98426.75
2023-03-06T13:50:48.877Z,98429.17
2023-03-06T13:54:15.742Z,98438.59
2023-03-06T13:56:59.398Z,98439.54
2023-03-06T14:00:09.258Z,98441.40
2023-03-06T14:03:11.039Z,98441.15
2023-03-06T14:06:12.527Z,98441.10
2023-03-06T14:09:40.989Z,98437.19
2023-03-06T14:12:24.089Z,98434.68
2023-03-06T14:15:26.368Z,98428.77
2023-03-06T14:18:46.197Z,98430.25
2023-03-06T14:21:55.984Z,98428.77
2023-03-06T14:24:47.249Z,98429.38
2023-03-06T14:27:44.591Z,98428.88
2023-03-06T14:30:23.673Z,98432.77
2023-03-06T14:35:59.868Z,98435.34
2023-03-06T14:38:36.398Z,98437.66
2023-03-06T14:45:22.149Z,98439.70
2023-03-06T14:48:16.730Z,98445.95
2023-03-06T14:50:57.256Z,98444.10
2023-03-06T14:53:34.818Z,98445.61
2023-03-06T14:56:28.852Z,98449.44
2023-03-06T14:59:18.846Z,98451.19
2023-03-06T15:02:42.566Z,98445.80
2023-03-06T15:05:46.507Z,98447.92
2023-03-06T15:08:30.599Z,98451.99
2023-03-06T15:11:17.837Z,98450.45
2023-03-06T15:14:23.791Z,98444.39
2023-03-06T15:17:35.243Z,98442.76
2023-03-06T15:20:07.674Z,98446.45
2023-03-06T15:22:46.924Z,98444.66
2023-03-06T15:25:40.097Z,98444.30
2023-03-06T15:28:47.588Z,98446.42
2023-03-06T15:33:10.532Z,98443.70
2023-03-06T15:36:21.125Z,98449.33
2023-03-06T15:39:09.610Z,98451.81
2023-03-06T15:42:05.764Z,98451.30
2023-03-06T15:45:42.893Z,98451.61
2023-03-06T15:49:54.740Z,98455.86
2023-03-06T15:52:42.208Z,98454.42
2023-03-06T15:56:26.816Z,98450.16
2023-03-06T15:59:11.512Z,98448.68
2023-03-06T16:02:14.378Z,98455.66
2023-03-06T16:05:18.095Z,98454.96
2023-03-06T16:07:55.445Z,98457.52
2023-03-06T16:10:51.308Z,98459.73
2023-03-06T16:13:36.881Z,98460.63
2023-03-06T16:16:21.918Z,98461.08
2023-03-06T16:19:28.188Z,98465.50
2023-03-06T16:22:03.175Z,98467.70
2023-03-06T16:24:34.264Z,98468.03
2023-03-06T16:27:21.859Z,98467.74
2023-03-06T16:29:59.076Z,98470.09
2023-03-06T16:32:32.726Z,98468.80
2023-03-06T16:35:09.048Z,98469.14
2023-03-06T16:37:45.940Z,98468.61
2023-03-06T16:40:44.280Z,98471.02
2023-03-06T16:43:27.504Z,98468.66
2023-03-06T16:45:56.266Z,98470.27
2023-03-06T16:48:26.972Z,98468.33
2023-03-06T16:51:11.590Z,98465.39
2023-03-06T16:53:44.111Z,98463.63
2023-03-06T16:56:20.813Z,98464.56
2023-03-06T16:59:12.420Z,98466.66
2023-03-06T17:01:51.152Z,98462.71
2023-03-06T17:04:21.699Z,98460.95
2023-03-06T17:06:54.858Z,98459.68
2023-03-06T17:09:32.640Z,98462.37
2023-03-06T17:12:00.023Z,98464.37
2023-03-06T17:14:46.778Z,98463.64
2023-03-06T17:17:18.734Z,98463.41
2023-03-06T17:19:48.947Z,98462.69
2023-03-06T17:22:18.153Z,98463.22
2023-03-06T17:24:52.837Z,98465.81
2023-03-06T17:27:24.912Z,98467.74
2023-03-06T17:30:02.994Z,98469.70
2023-03-06T17:33:09.942Z,98474.75
2023-03-06T17:36:07.513Z,98476.67
2023-03-06T17:40:12.654Z,98477.37
2023-03-06T17:42:31.513Z,98481.16
2023-03-06T17:45:12.061Z,98483.25
2023-03-06T17:48:00.782Z,98482.77
2023-03-06T17:50:33.822Z,98482.96
2023-03-06T17:53:01.024Z,98485.42
2023-03-06T17:55:29.848Z,98482.41
2023-03-06T17:57:57.168Z,98482.63
2023-03-06T18:00:27.047Z,98482.51
2023-03-06T18:02:57.108Z,98485.79
2023-03-06T18:05:25.736Z,98489.60
2023-03-06T18:08:02.237Z,98488.42
2023-03-06T18:10:32.883Z,98492.45
2023-03-06T18:13:14.759Z,98493.23
2023-03-06T18:15:42.866Z,98492.94
2023-03-06T18:18:10.236Z,98494.51
2023-03-06T18:20:49.745Z,98493.30
2023-03-06T18:23:20.292Z,98491.59
2023-03-06T18:25:47.546Z,98491.97
2023-03-06T18:28:26.529Z,98492.30
2023-03-06T18:31:08.269Z,98489.90
2023-03-06T18:33:37.781Z,98492.33
2023-03-06T18:36:06.966Z,98496.34
2023-03-06T18:38:39.388Z,98491.75
2023-03-06T18:41:08.074Z,98490.94
2023-03-06T18:43:36.746Z,98486.53
2023-03-06T18:46:07.442Z,98493.11
2023-03-06T18:48:38.936Z,98496.59
2023-03-06T18:51:09.040Z,98496.95
2023-03-06T18:53:40.100Z,98496.48
2023-03-06T18:56:18.510Z,98493.09
2023-03-06T18:58:52.419Z,98495.38
2023-03-06T19:01:26.742Z,98493.70
2023-03-06T19:03:54.106Z,98498.39
2023-03-06T19:06:22.014Z,98495.84
2023-03-06T19:08:53.352Z,98499.97
2023-03-06T19:11:21.114Z,98499.44
2023-03-06T19:13:52.575Z,98501.13
2023-03-06T19:16:31.379Z,98496.82
2023-03-06T19:19:02.575Z,98499.05
2023-03-06T19:21:35.498Z,98502.89
2023-03-06T19:24:06.398Z,98501.69
2023-03-06T19:26:34.513Z,98505.84
2023-03-06T19:29:41.913Z,98513.81
2023-03-06T19:32:15.603Z,98516.10
2023-03-06T19:35:23.451Z,98511.00
2023-03-06T19:38:18.900Z,98505.55
2023-03-06T19:40:53.710Z,98504.73
2023-03-06T19:43:57.195Z,98506.09
2023-03-06T19:46:37.613Z,98509.02
2023-03-06T19:49:47.758Z,98509.90
2023-03-06T19:55:47.459Z,98512.93
2023-03-06T19:58:33.325Z,98512.27
2023-03-06T20:01:24.473Z,98516.27
2023-03-06T20:04:04.311Z,98516.67
2023-03-06T20:06:54.952Z,98514.49
2023-03-06T20:09:47.521Z,98512.45
2023-03-06T20:17:25.079Z,98508.86
2023-03-06T20:28:21.899Z,98509.24
2023-03-06T20:31:39.599Z,98507.21
2023-03-06T20:34:46.650Z,98507.08
2023-03-06T20:37:29.855Z,98507.30
2023-03-06T20:40:17.876Z,98508.67
2023-03-06T20:42:52.920Z,98511.95
2023-03-06T20:46:44.070Z,98504.91
2023-03-06T20:49:54.310Z,98505.59
2023-03-06T21:04:32.897Z,98510.83
2023-03-06T21:07:43.982Z,98511.61
2023-03-06T21:11:09.221Z,98509.79
2023-03-06T21:18:16.703Z,98503.55
2023-03-06T21:21:11.111Z,98503.38
2023-03-06T21:25:18.286Z,98504.78
2023-03-06T21:28:41.190Z,98504.15
2023-03-06T21:35:09.036Z,98498.13
2023-03-06T21:38:10.858Z,98491.70
2023-03-06T21:40:55.010Z,98490.54
2023-03-06T21:44:33.756Z,98489.55
2023-03-06T21:47:47.414Z,98489.91
2023-03-06T21:50:31.569Z,98487.37
2023-03-06T21:53:20.286Z,98488.43
2023-03-06T21:55:50.505Z,98487.09
2023-03-06T21:58:22.623Z,98479.92
2023-03-06T22:00:53.040Z,98483.73
2023-03-06T22:03:36.260Z,98480.84
2023-03-06T22:06:18.827Z,98478.42
2023-03-06T22:08:52.324Z,98476.02
2023-03-06T22:11:46.508Z,98477.90
2023-03-06T22:14:23.112Z,98478.70
2023-03-06T22:17:00.959Z,98476.08
2023-03-06T22:19:28.552Z,98480.34
2023-03-06T22:22:05.330Z,98477.39
2023-03-06T22:25:04.995Z,98475.63
2023-03-06T22:27:35.273Z,98473.55
2023-03-06T22:30:06.728Z,98476.61
2023-03-06T22:32:37.742Z,98465.45
2023-03-06T22:35:26.958Z,98465.79
2023-03-06T22:37:54.161Z,98463.27
2023-03-06T22:40:24.471Z,98460.67
2023-03-06T22:42:59.253Z,98453.98
2023-03-06T22:45:34.743Z,98451.73
2023-03-06T22:48:11.186Z,98445.56
2023-03-06T22:51:05.034Z,98444.17
2023-03-06T22:53:51.031Z,98444.68
2023-03-06T22:56:30.162Z,98442.64
2023-03-06T22:59:06.814Z,98443.01
2023-03-06T23:01:37.051Z,98442.17
2023-03-06T23:04:52.542Z,98440.85
2023-03-06T23:13:22.188Z,98436.89
2023-03-06T23:17:01.787Z,98429.62
2023-03-06T23:20:29.670Z,98426.44
2023-03-06T23:23:35.521Z,98419.11
2023-03-06T23:27:35.591Z,98414.20
2023-03-06T23:31:42.270Z,98411.86
2023-03-06T23:39:11.690Z,98404.95
2023-03-06T23:42:25.315Z,98403.33
2023-03-06T23:46:09.277Z,98404.30
2023-03-06T23:49:40.446Z,98405.35
2023-03-06T23:52:49.322Z,98406.52
2023-03-06T23:56:22.365Z,98399.25
